Flight Track Log - Related Links

Times and Time Zones

All times are in EDT time to prevent confusion due to time zone crossing. See the N552SR flight status page for this flight to view local times or setup timezone preferences in your user account.


Time Position Orientation Groundspeed Altitude Reporting Facility
EDT Latitude Longitude Course Direction KTS MPH feet Rate Location/Type
Fri 01:53:00 PM 41.3230 -70.3689 294° West  Level FlightAware Approximate
Fri 01:54:00 PM 41.3385 -70.4206 288° West  Level FlightAware Approximate
Fri 01:55:00 PM 41.3518 -70.4735 288° West  Level FlightAware Approximate
Fri 01:56:00 PM 41.3650 -70.5265 288° West  Level FlightAware Approximate
Fri 01:57:00 PM 41.3782 -70.5795 288° West  Level FlightAware Approximate
Fri 01:58:00 PM 41.3756 -70.6326 252° West  Level FlightAware Approximate
Fri 01:59:00 PM 41.3629 -70.6858 252° West  Level FlightAware Approximate
Fri 02:00:00 PM 41.3502 -70.7389 252° West  Level FlightAware Approximate
Fri 02:01:00 PM 41.3375 -70.7921 252° West  Level FlightAware Approximate
Fri 02:01:08 PM 41.3356 -70.7647 267° West 177 204 6,000  Level Boston Center
Fri 02:02:00 PM 41.3247 -70.8452 252° West  Level FlightAware Approximate
Fri 02:02:36 PM 41.3181 -70.8536 255° West 170 196 6,000  Level Boston Center
Fri 02:03:00 PM 41.3119 -70.8983 252° West  Level FlightAware Approximate
Fri 02:03:36 PM 41.3083 -70.9092 257° West 167 192 5,900  Level Boston Center
Fri 02:04:00 PM 41.2766 -70.9357 219° Southwest  Level FlightAware Approximate
Fri 02:04:30 PM 41.2967 -70.9675 255° West 173 199 5,900  Level Boston Center
Fri 02:05:00 PM 41.2413 -70.9730 218° Southwest  Level FlightAware Approximate
Fri 02:05:31 PM 41.2828 -71.0286 253° West 169 194 5,900  Level Boston Center
Fri 02:06:00 PM 41.2451 -71.0328 267° West  Level Estimated
Fri 02:06:37 PM 41.2692 -71.0925 254° West 167 192 5,900  Level Boston Center
Fri 02:07:38 PM 41.2572 -71.1506 255° West 168 193 5,900  Level Boston Center
Fri 02:08:32 PM 41.2453 -71.2089 255° West 171 197 5,900  Level Boston Center
Fri 02:09:38 PM 41.2314 -71.2781 255° West 173 199 5,900  Level Boston Center
Fri 02:10:42 PM 41.2175 -71.3364 252° West 170 196 5,900  Level Boston Center
Fri 02:11:42 PM 41.2036 -71.4000 254° West 173 199 5,900  Level Boston Center
Fri 02:12:37 PM 41.1936 -71.4525 256° West 172 198 5,900  Level Boston Center
Fri 02:13:37 PM 41.1794 -71.5189 254° West 173 199 5,900  Level Boston Center
Fri 02:14:44 PM 41.1633 -71.5881 253° West 172 198 5,900  Level Boston Center
Fri 02:15:44 PM 41.1639 -71.6433 271° West 156 180 5,900  Level Boston Center
Fri 02:16:50 PM 41.1622 -71.7094 268° West 162 186 5,900  Level Boston Center
Fri 02:17:52 PM 41.1647 -71.7700 273° West 161 185 5,900  Level Boston Center
Fri 02:18:46 PM 41.1628 -71.8225 267° West 153 176 5,900 -207 Level Boston Center
Fri 02:19:48 PM 41.1611 -71.8831 268° West 171 197 5,500 -414 Descending Boston Center
Fri 02:20:42 PM 41.1594 -71.9467 268° West 175 201 5,100 -443 Descending Boston Center
Fri 02:21:50 PM 41.1575 -72.0211 268° West 188 216 4,600 -400 Descending Boston Center
Fri 02:23:27 PM 41.1500 -72.1333 265° West 181 208 4,000 -221 Descending New York TRACON
Fri 02:24:33 PM 41.1500 -72.2000 270° West 166 191 4,000  Level New York TRACON
Fri 02:25:33 PM 41.1333 -72.2500 246° West 171 197 4,000 150 Level New York TRACON
Fri 02:26:33 PM 41.1167 -72.3167 252° West 163 188 4,300 400 Climbing New York TRACON
Fri 02:27:33 PM 41.1167 -72.3667 270° West 150 173 4,800 421 Climbing New York TRACON
Fri 02:28:27 PM 41.1167 -72.4167 270° West 152 175 5,100 368 Climbing New York TRACON
Fri 02:29:27 PM 41.1167 -72.4667 270° West 147 169 5,500 400 Climbing New York TRACON
Fri 02:30:27 PM 41.1167 -72.5167 270° West 150 173 5,900 200 Climbing New York TRACON
Fri 02:31:27 PM 41.1167 -72.5833 270° West 163 188 5,900  Level New York TRACON
Fri 02:32:27 PM 41.1333 -72.6500 288° West 166 191 5,900  Level New York TRACON
Fri 02:33:27 PM 41.1333 -72.7000 270° West 166 191 5,900  Level New York TRACON
Fri 02:34:27 PM 41.1333 -72.7667 270° West 167 192 5,900  Level New York TRACON
Fri 02:35:33 PM 41.1333 -72.8333 270° West 165 190 5,900  Level New York TRACON
Fri 02:36:27 PM 41.1500 -72.8833 294° West 164 189 5,900 -158 Level New York TRACON
Fri 02:37:27 PM 41.1667 -72.9333 294° West 177 204 5,600 -500 Descending New York TRACON
Fri 02:38:27 PM 41.1833 -73.0000 288° West 182 209 4,900 -750 Descending New York TRACON
Fri 02:39:27 PM 41.2000 -73.0500 294° West 183 211 4,100 -800 Descending New York TRACON
Fri 02:40:27 PM 41.2333 -73.1167 304° West 184 212 3,300 -550 Descending New York TRACON
Fri 02:41:27 PM 41.2500 -73.1833 288° West 177 204 3,000 -350 Descending New York TRACON
Fri 02:42:27 PM 41.2833 -73.2333 312° West 175 201 2,600 -300 Descending New York TRACON
Fri 02:43:27 PM 41.3000 -73.2833 294° West 172 198 2,400 -200 Descending New York TRACON

Login

Don't have an account? Register now (free) for customized features, flight alerts, and more!